Woodville, AL

1:00 PM CST on January 22, 2017 (GMT -0600)
| | Change Station
Active Advisory: Wind Advisory

Elev -9999 ft 0.00 °N, 0.00 °E | Updated 41 seconds ago

Overcast
Overcast
°F
Feels Like °F
N
Wind Variable Wind from North
Gusts mph

Today
High -- | Low -- °F
--% Chance of Precip.
Yesterday
High -- | Low -- °F
Precip. -- in
Pressure 29.28 in
Visibility 10.0 miles
Clouds Mostly Cloudy 2400 ft
Dew Point Not available.
Humidity Not available.
Rainfall --
Snow Depth Not available.
6:49 AM 5:04 PM
Waning Crescent, 24% visible
METAR K4A6 221835Z AUTO 05005KT 10SM BKN024 19/14 A2928 RMK AO2
Pressure 29.28 in
Visibility 10.0 miles
Clouds Mostly Cloudy 2400 ft
Dew Point Not available.
Humidity Not available.
Rainfall --
Snow Depth Not available.
6:49 AM 5:04 PM
Waning Crescent, 24% visible
METAR K4A6 221835Z AUTO 05005KT 10SM BKN024 19/14 A2928 RMK AO2

Get Your Daily Forecast Email!

Thanks for signing up!

Be on the lookout for a verification email in your inbox.

You'll start receiving the daily forecast at 8 AM.

×

10-Day Weather Forecast

Almanac

Astronomy

Jan. 22, 2017 Rise Set
Actual Time
Civil Twilight
Nautical Twilight
Astronomical Twilight
Moon
Length of Visible Light
Length of Day
Tomorrow will be .
, % of the Moon is Illuminated

Today's Extremes

State Highs State Lows

Community

WunderPhotos

Upload Photos

1,962,540 photos uploaded!

WunderBlog® & News

Nearby

Air Quality

  Air Quality AQ Index Pollutant
Not available.

Snow Depth

Station Depth Elevation

Earthquake Activity

City Distance Mag. Time & Date
Minimum magnitude displayed is 2.5.

Coastal Water Temperatures

Place Temperature

Stations

Nearby Weather Stations

Station Location Temp. Windchill Dew Point Humidity Wind Precip. Elev Updated Type
                   

Watches & Warnings

Wind Advisory
Issued: 9:24 AM CST Jan. 22, 2017 – National Weather Service

... Wind Advisory in effect from 3 am to 6 PM CST Monday...

The National Weather Service in Huntsville has issued a Wind
Advisory, which is in effect from 3 am to 6 PM CST Monday.

* Timing and areas affected... all of north Alabama and southern
middle Tennessee starting tonight at 3 am CST and continuing
through Monday evening at 6 PM CST.

* Winds... sustained winds will increase tonight to around 25 mph
in most locations with gusts between 35 and 40 mph.

* Impacts... winds of this magnitude will blow around unsecured
lawn items... and make driving difficult for high profile
vehicles.

Precautionary/preparedness actions...

A Wind Advisory means that sustained wind speeds of at least
25 mph... or gusts of at least 35 mph... are expected across the
affected area. Winds this strong can make driving difficult...
especially for high profile vehicles. Use extra caution. In
addition... ensure all loose outdoor objects remain secure...
including patio furniture and trash cans.